EDT,Max TemperatureF,Mean TemperatureF,Min TemperatureF,Max Dew PointF,MeanDew PointF,Min DewpointF,Max Humidity, Mean Humidity, Min Humidity, Max Sea Level PressureIn, Mean Sea Level PressureIn, Min Sea Level PressureIn, Max VisibilityMiles, Mean VisibilityMiles, Min VisibilityMiles, Max Wind SpeedMPH, Mean Wind SpeedMPH, Max Gust SpeedMPH,PrecipitationIn, CloudCover, Events, WindDirDegrees
2011-10-1,56,47,37,37,36,34,92,68,43,30.22,30.13,30.04,10,10,10,18,9,23,0.00,3,,342
2011-10-2,63,48,32,39,33,29,100,63,25,30.23,30.17,30.10,10,9,4,18,7,25,0.00,0,,325
2011-10-3,70,53,36,42,37,31,92,58,24,30.21,30.16,30.12,10,10,10,14,5,21,0.00,0,,320
2011-10-4,76,58,39,46,40,34,93,58,23,30.31,30.25,30.20,10,10,7,9,1,15,0.00,0,,4
2011-10-5,80,63,46,50,46,42,93,61,28,30.31,30.26,30.21,10,10,10,6,2,12,0.00,0,,241
2011-10-6,81,64,46,53,48,45,93,62,30,30.32,30.27,30.24,10,10,10,8,2,13,0.00,0,,157
2011-10-7,82,66,50,52,48,46,89,59,28,30.40,30.32,30.28,10,10,8,9,3,14,0.00,0,,154
2011-10-8,82,66,49,54,52,48,89,62,34,30.39,30.34,30.31,10,10,4,9,3,14,0.00,0,,168
2011-10-9,78,63,48,52,47,42,93,61,29,30.40,30.33,30.25,10,8,2,12,5,14,0.00,0,,138
2011-10-10,79,65,51,51,46,42,77,53,28,30.25,30.17,30.09,10,10,10,13,5,18,0.00,0,,138
2011-10-11,78,62,46,50,46,43,86,58,29,30.09,30.02,29.94,10,10,8,14,5,21,0.00,0,,137
2011-10-12,71,62,53,54,51,46,89,71,52,29.93,29.84,29.72,10,10,10,12,5,16,0.00,4,,148
2011-10-13,63,58,52,58,56,50,96,87,78,29.71,29.56,29.47,10,8,2,16,6,21,0.24,7,Rain,184
2011-10-14,62,55,47,54,45,38,89,66,42,29.71,29.59,29.50,10,10,7,25,13,35,0.05,4,Rain,267
2011-10-15,62,54,45,40,37,32,83,58,32,29.93,29.84,29.72,10,10,10,28,15,41,0.00,0,,261
2011-10-16,71,59,47,46,40,35,59,48,37,29.95,29.83,29.71,10,10,10,22,12,30,T,3,Rain,255
2011-10-17,62,52,41,40,31,24,76,51,25,29.93,29.88,29.83,10,10,10,20,10,25,0.02,2,Rain,257
2011-10-18,48,46,44,45,42,40,92,88,83,29.88,29.80,29.69,10,7,2,16,7,21,0.41,8,Rain-Thunderstorm,3
2011-10-19,48,46,44,45,43,41,93,90,86,29.68,29.46,29.29,10,4,1,20,12,24,1.62,8,Rain,7
2011-10-20,45,44,42,42,39,37,96,89,82,29.88,29.53,29.26,10,9,3,25,16,36,0.63,8,Rain,286
2011-10-21,54,45,35,38,36,32,92,71,50,30.12,30.03,29.89,10,10,10,13,7,16,0.00,3,,261
2011-10-22,61,46,31,36,33,29,92,64,35,30.15,30.11,30.06,10,10,10,14,4,21,0.00,0,,219
2011-10-23,66,55,43,47,40,33,77,61,44,30.04,30.01,29.96,10,10,10,14,8,20,0.00,2,,206
2011-10-24,63,52,41,50,43,33,89,63,36,30.17,30.03,29.91,10,10,5,16,8,22,0.13,4,Rain,261
2011-10-25,71,55,38,39,36,34,79,52,25,30.19,30.05,29.82,10,10,5,20,11,29,0.00,0,,192
2011-10-26,71,60,49,53,47,39,89,65,40,29.85,29.80,29.75,10,8,3,18,10,29,0.03,7,Rain-Thunderstorm,268
2011-10-27,49,42,35,46,40,35,93,79,65,30.16,29.94,29.82,10,8,2,17,8,21,0.12,7,Rain,6
2011-10-28,52,42,31,37,31,27,96,68,39,30.23,30.16,30.11,10,10,8,9,2,14,0.00,1,,81
2011-10-29,55,43,30,34,29,24,82,57,32,30.15,30.08,30.04,10,10,10,18,6,25,0.00,3,,249
2011-10-30,56,41,26,31,27,26,92,62,32,30.23,30.15,30.08,10,10,6,25,7,21,0.00,3,,188
2011-10-31,57,45,33,40,33,28,89,64,38,30.17,30.06,30.01,10,10,8,15,6,21,0.06,4,Rain,220